createdAt,value
2023-05-05T00:02:43.428Z,21.50
2023-05-05T00:06:30.137Z,21.60
2023-05-05T00:10:18.584Z,21.60
2023-05-05T00:14:03.765Z,21.50
2023-05-05T00:17:49.085Z,21.50
2023-05-05T00:21:34.520Z,21.50
2023-05-05T00:25:19.627Z,21.50
2023-05-05T00:29:05.927Z,21.50
2023-05-05T00:32:52.555Z,21.50
2023-05-05T00:36:38.540Z,21.50
2023-05-05T00:40:24.991Z,21.50
2023-05-05T00:44:15.289Z,21.50
2023-05-05T00:48:03.200Z,21.50
2023-05-05T00:51:48.840Z,21.50
2023-05-05T00:55:35.882Z,21.50
2023-05-05T00:59:21.325Z,21.50
2023-05-05T01:03:10.607Z,21.50
2023-05-05T01:07:29.480Z,21.50
2023-05-05T01:11:32.108Z,21.50
2023-05-05T01:20:22.294Z,21.50
2023-05-05T01:24:43.842Z,21.50
2023-05-05T01:29:22.032Z,21.50
2023-05-05T01:33:14.137Z,21.50
2023-05-05T01:37:04.591Z,21.50
2023-05-05T01:40:52.228Z,21.60
2023-05-05T01:44:38.000Z,21.50
2023-05-05T01:48:23.020Z,21.60
2023-05-05T01:52:08.029Z,21.60
2023-05-05T01:55:54.031Z,21.60
2023-05-05T01:59:41.548Z,21.60
2023-05-05T02:03:28.879Z,21.60
2023-05-05T02:07:16.582Z,21.60
2023-05-05T02:11:02.404Z,21.60
2023-05-05T02:14:48.888Z,21.60
2023-05-05T02:18:37.702Z,21.60
2023-05-05T02:22:23.233Z,21.60
2023-05-05T02:26:11.910Z,21.60
2023-05-05T02:30:02.514Z,21.60
2023-05-05T02:33:50.158Z,21.60
2023-05-05T02:37:39.238Z,21.60
2023-05-05T02:41:26.099Z,21.60
2023-05-05T02:45:18.254Z,21.60
2023-05-05T02:49:02.803Z,21.60
2023-05-05T02:52:49.158Z,21.60
2023-05-05T02:56:42.078Z,21.60
2023-05-05T03:00:47.387Z,21.60
2023-05-05T03:04:42.590Z,21.60
2023-05-05T03:08:31.323Z,21.60
2023-05-05T03:12:20.116Z,21.50
2023-05-05T03:16:06.811Z,21.60
2023-05-05T03:19:51.002Z,21.60
2023-05-05T03:23:33.263Z,21.60
2023-05-05T03:27:14.987Z,21.50
2023-05-05T03:30:56.940Z,21.60
2023-05-05T03:34:38.642Z,21.50
2023-05-05T03:38:20.588Z,21.50
2023-05-05T03:42:02.414Z,21.50
2023-05-05T03:45:44.214Z,21.60
2023-05-05T03:49:28.734Z,21.60
2023-05-05T03:53:10.456Z,21.60
2023-05-05T03:56:52.159Z,21.60
2023-05-05T04:00:33.907Z,21.60
2023-05-05T04:04:16.379Z,21.60
2023-05-05T04:07:58.430Z,21.60
2023-05-05T04:11:40.319Z,21.50
2023-05-05T04:15:22.214Z,21.50
2023-05-05T04:19:04.035Z,21.50
2023-05-05T04:22:46.103Z,21.50
2023-05-05T04:26:30.705Z,21.50
2023-05-05T04:30:12.815Z,21.50
2023-05-05T04:33:54.506Z,21.50
2023-05-05T04:37:36.426Z,21.50
2023-05-05T04:41:18.144Z,21.30
2023-05-05T04:44:59.846Z,21.10
2023-05-05T04:48:44.021Z,20.90
2023-05-05T04:52:25.761Z,20.90
2023-05-05T04:56:07.567Z,20.90
2023-05-05T04:59:49.257Z,20.90
2023-05-05T05:03:32.030Z,20.90
2023-05-05T05:07:15.069Z,20.90
2023-05-05T05:10:56.801Z,20.90
2023-05-05T05:14:39.319Z,20.90
2023-05-05T05:18:21.089Z,20.90
2023-05-05T05:22:02.919Z,21.00
2023-05-05T05:25:44.717Z,21.00
2023-05-05T05:29:27.090Z,21.00
2023-05-05T05:33:08.993Z,21.00
2023-05-05T05:36:50.866Z,21.00
2023-05-05T05:40:32.668Z,21.10
2023-05-05T05:44:14.360Z,21.00
2023-05-05T05:47:56.310Z,21.00
2023-05-05T05:51:38.060Z,21.10
2023-05-05T05:55:19.821Z,21.10
2023-05-05T05:59:01.654Z,21.10
2023-05-05T06:02:43.461Z,21.20
2023-05-05T06:06:25.237Z,21.20
2023-05-05T06:10:22.940Z,21.20
2023-05-05T06:14:07.996Z,21.20
2023-05-05T06:17:49.698Z,21.10
2023-05-05T06:21:31.423Z,21.20
2023-05-05T06:25:13.135Z,21.20
2023-05-05T06:28:54.902Z,21.20
2023-05-05T06:32:36.669Z,21.20
2023-05-05T06:36:18.443Z,21.20
2023-05-05T06:40:00.259Z,21.20
2023-05-05T06:43:42.973Z,21.20
2023-05-05T06:47:24.933Z,21.20
2023-05-05T06:51:06.751Z,21.20
2023-05-05T06:54:48.432Z,21.20
2023-05-05T06:58:30.190Z,21.20
2023-05-05T07:02:11.881Z,21.20
2023-05-05T07:05:54.921Z,21.30
2023-05-05T07:09:36.642Z,21.20
2023-05-05T07:13:18.466Z,21.30
2023-05-05T07:17:00.420Z,21.30
2023-05-05T07:20:43.734Z,21.30
2023-05-05T07:24:25.548Z,21.30
2023-05-05T07:28:07.303Z,21.30
2023-05-05T07:31:49.077Z,21.30
2023-05-05T07:35:30.924Z,21.20
2023-05-05T07:39:15.024Z,21.20
2023-05-05T07:42:56.788Z,21.20
2023-05-05T07:46:38.590Z,21.10
2023-05-05T07:50:20.681Z,21.20
2023-05-05T07:54:02.412Z,21.20
2023-05-05T07:57:44.136Z,21.20
2023-05-05T08:01:25.943Z,21.20
2023-05-05T08:05:08.389Z,21.30
2023-05-05T08:08:50.778Z,21.30
2023-05-05T08:12:32.474Z,21.30
2023-05-05T08:16:14.447Z,21.30
2023-05-05T08:19:56.231Z,21.30
2023-05-05T08:23:38.777Z,21.30
2023-05-05T08:27:20.586Z,21.30
2023-05-05T08:31:06.832Z,21.30
2023-05-05T08:34:48.600Z,21.30
2023-05-05T08:38:30.389Z,21.30
2023-05-05T08:42:17.534Z,21.30
2023-05-05T08:46:05.003Z,21.30
2023-05-05T08:49:47.670Z,21.30
2023-05-05T08:53:58.276Z,21.40
2023-05-05T08:57:47.978Z,21.40
2023-05-05T09:01:32.446Z,21.40
2023-05-05T09:05:14.923Z,21.40
2023-05-05T09:08:58.963Z,21.30
2023-05-05T09:12:42.359Z,21.40
2023-05-05T09:16:24.224Z,21.40
2023-05-05T09:20:13.574Z,21.40
2023-05-05T09:24:12.690Z,21.40
2023-05-05T09:27:54.899Z,21.40
2023-05-05T09:31:37.669Z,21.40
2023-05-05T09:35:20.988Z,21.40
2023-05-05T09:39:06.354Z,21.40
2023-05-05T09:42:48.393Z,21.40
2023-05-05T09:46:30.190Z,21.40
2023-05-05T09:50:18.460Z,21.40
2023-05-05T09:54:00.529Z,21.50
2023-05-05T09:57:42.214Z,21.50
2023-05-05T10:01:24.031Z,21.50
2023-05-05T10:05:18.054Z,21.50
2023-05-05T10:09:02.754Z,21.50
2023-05-05T10:12:46.855Z,21.50
2023-05-05T10:16:32.329Z,21.50
2023-05-05T10:20:15.796Z,21.50
2023-05-05T10:24:23.548Z,21.50
2023-05-05T10:28:06.740Z,21.50
2023-05-05T10:31:54.002Z,21.50
2023-05-05T10:35:38.301Z,21.50
2023-05-05T10:39:21.128Z,21.60
2023-05-05T10:43:03.155Z,21.60
2023-05-05T10:46:45.975Z,21.60
2023-05-05T10:50:32.901Z,21.60
2023-05-05T10:54:39.135Z,21.60
2023-05-05T10:58:43.667Z,21.60
2023-05-05T11:02:33.316Z,21.60
2023-05-05T11:06:15.295Z,21.60
2023-05-05T11:10:06.107Z,21.60
2023-05-05T11:14:07.957Z,21.60
2023-05-05T11:17:50.115Z,21.60
2023-05-05T11:22:01.733Z,21.60
2023-05-05T11:25:44.578Z,21.70
2023-05-05T11:29:26.632Z,21.60
2023-05-05T11:33:37.362Z,21.70
2023-05-05T11:37:23.833Z,21.60
2023-05-05T11:41:27.125Z,21.70
2023-05-05T11:45:23.536Z,21.70
2023-05-05T11:49:06.698Z,21.70
2023-05-05T11:52:48.816Z,21.70
2023-05-05T11:56:30.563Z,21.70
2023-05-05T12:00:12.944Z,21.70
2023-05-05T12:03:55.001Z,21.70
2023-05-05T12:07:37.107Z,21.70
2023-05-05T12:11:18.874Z,21.70
2023-05-05T12:15:00.996Z,21.70
2023-05-05T12:18:42.913Z,21.80
2023-05-05T12:22:26.250Z,21.80
2023-05-05T12:26:08.048Z,21.80
2023-05-05T12:29:50.971Z,21.80
2023-05-05T12:33:39.450Z,21.80
2023-05-05T12:37:22.301Z,21.80
2023-05-05T12:41:04.506Z,21.80
2023-05-05T12:44:46.776Z,21.80
2023-05-05T12:48:28.682Z,21.80
2023-05-05T12:52:10.640Z,21.90
2023-05-05T12:55:52.331Z,21.80
2023-05-05T12:59:34.019Z,21.90
2023-05-05T13:03:19.845Z,21.90
2023-05-05T13:07:11.457Z,21.90
2023-05-05T13:10:58.302Z,21.90
2023-05-05T13:14:40.937Z,21.90
2023-05-05T13:18:22.679Z,21.90
2023-05-05T13:22:04.359Z,21.90
2023-05-05T13:25:46.204Z,21.90
2023-05-05T13:29:31.132Z,21.90
2023-05-05T13:33:13.352Z,21.90
2023-05-05T13:36:55.155Z,21.90
2023-05-05T13:40:36.926Z,21.90
2023-05-05T13:44:18.749Z,21.90
2023-05-05T13:48:00.465Z,21.90
2023-05-05T13:51:43.104Z,21.90
2023-05-05T13:55:25.169Z,21.80
2023-05-05T13:59:06.942Z,21.80
2023-05-05T14:02:48.760Z,21.90
2023-05-05T14:06:30.514Z,21.90
2023-05-05T14:10:12.280Z,21.90
2023-05-05T14:13:54.143Z,21.90
2023-05-05T14:17:36.081Z,21.90
2023-05-05T14:21:17.826Z,21.90
2023-05-05T14:24:59.540Z,21.90
2023-05-05T14:28:42.237Z,22.00
2023-05-05T14:32:27.685Z,22.00
2023-05-05T14:36:09.734Z,22.00
2023-05-05T14:39:51.432Z,22.00
2023-05-05T14:43:33.405Z,22.00
2023-05-05T14:47:15.159Z,22.00
2023-05-05T14:50:56.948Z,22.10
2023-05-05T14:54:38.653Z,22.10
2023-05-05T14:58:26.565Z,22.00
2023-05-05T15:02:08.687Z,22.10
2023-05-05T15:05:50.384Z,22.10
2023-05-05T15:09:35.423Z,22.10
2023-05-05T15:13:18.727Z,22.10
2023-05-05T15:17:00.716Z,22.10
2023-05-05T15:20:42.466Z,22.10
2023-05-05T15:24:28.014Z,22.10
2023-05-05T15:28:09.724Z,22.10
2023-05-05T15:31:54.877Z,22.20
2023-05-05T15:35:39.902Z,22.10
2023-05-05T15:39:21.609Z,22.20
2023-05-05T15:43:03.336Z,22.20
2023-05-05T15:46:45.133Z,22.20
2023-05-05T15:50:30.150Z,22.20
2023-05-05T15:54:12.206Z,22.20
2023-05-05T15:57:54.788Z,22.20
2023-05-05T16:01:36.886Z,22.20
2023-05-05T16:05:20.623Z,22.20
2023-05-05T16:09:07.562Z,22.30
2023-05-05T16:12:50.013Z,22.20
2023-05-05T16:16:34.619Z,22.20
2023-05-05T16:20:20.439Z,22.20
2023-05-05T16:24:06.048Z,22.20
2023-05-05T16:27:48.196Z,22.30
2023-05-05T16:31:30.007Z,22.30
2023-05-05T16:35:12.139Z,22.30
2023-05-05T16:38:54.241Z,22.30
2023-05-05T16:42:38.611Z,22.30
2023-05-05T16:46:20.346Z,22.30
2023-05-05T16:50:02.120Z,22.30
2023-05-05T16:53:44.620Z,22.30
2023-05-05T16:57:30.040Z,22.30
2023-05-05T17:01:12.171Z,22.30
2023-05-05T17:04:53.895Z,22.30
2023-05-05T17:08:36.075Z,22.30
2023-05-05T17:12:17.890Z,22.30
2023-05-05T17:16:03.440Z,22.30
2023-05-05T17:19:45.485Z,22.30
2023-05-05T17:23:27.265Z,22.30
2023-05-05T17:27:09.005Z,22.30
2023-05-05T17:30:50.885Z,22.30
2023-05-05T17:34:32.745Z,22.20
2023-05-05T17:38:15.490Z,22.30
2023-05-05T17:41:57.189Z,22.20
2023-05-05T17:45:39.047Z,22.30
2023-05-05T17:49:21.590Z,22.20
2023-05-05T17:53:04.393Z,22.20
2023-05-05T17:56:46.168Z,22.20
2023-05-05T18:00:27.906Z,22.10
2023-05-05T18:04:09.610Z,22.20
2023-05-05T18:07:51.284Z,22.20
2023-05-05T18:11:33.937Z,22.20
2023-05-05T18:15:15.797Z,22.20
2023-05-05T18:18:57.541Z,22.20
2023-05-05T18:22:39.295Z,22.20
2023-05-05T18:26:24.062Z,22.20
2023-05-05T18:30:09.611Z,22.20
2023-05-05T18:33:52.772Z,22.20
2023-05-05T18:37:38.470Z,22.20
2023-05-05T18:41:20.271Z,22.20
2023-05-05T18:45:06.326Z,22.30
2023-05-05T18:48:50.758Z,22.30
2023-05-05T18:52:37.061Z,22.20
2023-05-05T18:56:18.897Z,22.30
2023-05-05T19:00:01.043Z,22.30
2023-05-05T19:03:52.017Z,22.30
2023-05-05T19:07:36.657Z,22.30
2023-05-05T19:11:18.399Z,22.30
2023-05-05T19:15:00.495Z,22.30
2023-05-05T19:18:46.397Z,22.30
2023-05-05T19:22:31.834Z,22.30
2023-05-05T19:26:17.979Z,22.30
2023-05-05T19:30:03.850Z,22.40
2023-05-05T19:33:50.043Z,22.30
2023-05-05T19:37:31.726Z,22.30
2023-05-05T19:41:19.223Z,22.40
2023-05-05T19:45:02.973Z,22.40
2023-05-05T19:48:49.017Z,22.40
2023-05-05T19:52:31.177Z,22.40
2023-05-05T19:56:15.059Z,22.40
2023-05-05T20:00:00.764Z,22.40
2023-05-05T20:03:46.588Z,22.40
2023-05-05T20:07:32.073Z,22.40
2023-05-05T20:11:15.114Z,22.40
2023-05-05T20:14:59.098Z,22.40
2023-05-05T20:18:41.134Z,22.40
2023-05-05T20:22:22.815Z,22.40
2023-05-05T20:26:07.945Z,22.40
2023-05-05T20:29:50.628Z,22.40
2023-05-05T20:33:32.761Z,22.40
2023-05-05T20:37:18.238Z,22.30
2023-05-05T20:41:02.758Z,22.40
2023-05-05T20:44:44.885Z,22.40
2023-05-05T20:48:27.650Z,22.40
2023-05-05T20:52:12.907Z,22.40
2023-05-05T20:55:58.474Z,22.40
2023-05-05T20:59:40.215Z,22.40
2023-05-05T21:03:22.205Z,22.40
2023-05-05T21:07:08.471Z,22.40
2023-05-05T21:10:53.990Z,22.30
2023-05-05T21:14:39.583Z,22.30
2023-05-05T21:18:21.317Z,22.30
2023-05-05T21:22:07.098Z,22.30
2023-05-05T21:25:49.171Z,22.30
2023-05-05T21:29:37.401Z,22.30
2023-05-05T21:33:22.656Z,22.30
2023-05-05T21:37:05.043Z,22.30
2023-05-05T21:40:51.547Z,22.30
2023-05-05T21:44:37.470Z,22.30
2023-05-05T21:48:23.166Z,22.30
2023-05-05T21:52:08.322Z,22.20
2023-05-05T21:55:54.106Z,22.20
2023-05-05T21:59:39.942Z,22.20
2023-05-05T22:03:24.651Z,22.20
2023-05-05T22:07:09.619Z,22.20
2023-05-05T22:10:52.132Z,22.20
2023-05-05T22:14:34.929Z,22.20
2023-05-05T22:18:20.372Z,22.20
2023-05-05T22:22:05.327Z,22.20
2023-05-05T22:25:48.289Z,22.20
2023-05-05T22:29:33.503Z,22.20
2023-05-05T22:33:19.750Z,22.20
2023-05-05T22:37:05.332Z,22.10
2023-05-05T22:40:50.893Z,22.20
2023-05-05T22:44:32.819Z,22.10
2023-05-05T22:48:15.954Z,22.10
2023-05-05T22:52:00.647Z,22.10
2023-05-05T22:55:46.593Z,22.10
2023-05-05T22:59:31.970Z,22.10
2023-05-05T23:03:17.339Z,22.10
2023-05-05T23:07:02.353Z,22.10
2023-05-05T23:10:44.133Z,22.10
2023-05-05T23:14:29.830Z,22.10
2023-05-05T23:18:14.882Z,22.10
2023-05-05T23:22:01.537Z,22.10
2023-05-05T23:25:47.282Z,22.10
2023-05-05T23:29:33.533Z,22.10
2023-05-05T23:33:22.507Z,22.10
2023-05-05T23:37:08.299Z,22.10
2023-05-05T23:40:53.806Z,22.10
2023-05-05T23:44:38.431Z,22.10
2023-05-05T23:48:24.404Z,22.10
2023-05-05T23:52:06.709Z,22.10
2023-05-05T23:55:48.525Z,22.10
2023-05-05T23:59:30.632Z,22.10
